This is the latest recevied weather packets stored in our database for station/object LU8FCJ-5. If no packets are shown the sender has not sent any weather packets the latest 10 day(s).
| Time | Temp. | Humidity | Pressure | Rain* | Wind** | Luminosity | Snow |
|---|---|---|---|---|---|---|---|
| 1777691361 | 11.11° C | 76% | 1019.4 hPa | 0 mm | - | - | - |
| 1777691050 | 11.11° C | 76% | 1018.9 hPa | 0 mm | - | - | - |
| 1777690739 | 11.67° C | 75% | 1019 hPa | 0 mm | - | - | - |
| 1777690430 | 11.67° C | 74% | 1018.8 hPa | 0 mm | - | - | - |
| 1777690119 | 11.67° C | 73% | 1018.7 hPa | 0 mm | - | - | - |
| 1777689811 | 12.22° C | 72% | 1018.7 hPa | 0 mm | - | - | - |
| 1777689500 | 12.78° C | 71% | 1018.5 hPa | 0 mm | - | - | - |
| 1777689190 | 12.78° C | 70% | 1018.7 hPa | 0 mm | - | - | - |
| 1777688878 | 12.78° C | 70% | 1018.5 hPa | 0 mm | - | - | - |
| 1777688569 | 12.78° C | 70% | 1018.5 hPa | 0 mm | - | - | - |
| 1777688259 | 12.78° C | 71% | 1018.3 hPa | 0 mm | - | - | - |
| 1777687643 | 12.78° C | 73% | 1018.3 hPa | 0 mm | - | - | - |
| 1777687334 | 12.22° C | 73% | 1018.3 hPa | 0 mm | - | - | - |
| 1777687021 | 12.22° C | 73% | 1018.2 hPa | 0 mm | - | - | - |
| 1777686711 | 12.22° C | 73% | 1018.1 hPa | 0 mm | - | - | - |
| 1777686401 | 12.22° C | 73% | 1018 hPa | 0 mm | - | - | - |
| 1777686104 | 12.22° C | 73% | 1017.9 hPa | 0 mm | - | - | - |
| 1777685781 | 11.67° C | 74% | 1017.9 hPa | 0 mm | - | - | - |
| 1777685471 | 11.11° C | 77% | 1017.6 hPa | 0 mm | - | - | - |
| 1777685161 | 10.56° C | 79% | 1017.7 hPa | 0 mm | - | - | - |
| 1777684850 | 11.11° C | 77% | 1017.5 hPa | 0 mm | - | - | - |
| 1777684540 | 12.22° C | 73% | 1017.5 hPa | 0 mm | - | - | - |
| 1777684232 | 12.78° C | 72% | 1017.2 hPa | 0 mm | - | - | - |
| 1777683923 | 12.78° C | 71% | 1017.2 hPa | 0 mm | - | - | - |
| 1777683619 | 12.78° C | 72% | 1017.1 hPa | 0 mm | - | - | - |
* Rain latest hour (hover to see other rain measurements)
** Current wind speed in m/s (hover to see current wind gust speed)